Meteo Giornale » Osservazioni meteo Italia » Pratica Di Mare

ore: 15:55 - Osservazioni Meteo Pratica Di Mare
Lat. 41° 39' N Lon. 12° 27' E Alt. 6 metri s.l.m.

poco_nuvoloso Europe/Rome

21 °C

Poco Nuvoloso

Temp. 24 Ore

14 °C

21 °C

Sud

18.5 Km/h

Dew point 14 °C

Umidità 64 %

Visibilità  10 Km

Il sole sorge alle ore 07:25

Il sole tramonta alle ore 18:24

Data e Ora Cielo e Fenomeni T °C DP °C Um. % Pres. hPa Vis. km Vento km/h
Oggi h: 15:55 poco_nuvoloso Poco Nuvoloso 21 14 64 1017 10 S 18.5
Oggi h: 14:55 nuvoloso Nuvoloso 21 13 60 1018 10 S 18.5
Oggi h: 13:55 nuvoloso Nuvoloso 21 15 68 1017 10 S 20.3
Oggi h: 12:55 nuvoloso Nuvoloso 21 15 68 1018 10 S 16.7
Oggi h: 11:55 poco_nuvoloso Poco Nuvoloso 21 15 68 1018 10 S 13
Oggi h: 09:55 sereno Sereno 17 13 77 1018 10 E/SE 13
Oggi h: 07:55 sereno Sereno 14 13 93 1017 10 N 5.5
Oggi h: 06:55 sereno Sereno 14 13 93 1017 10 N/NE 7.4
Oggi h: 05:55 sereno Sereno 15 14 93 1017 10 NE 9.3
Oggi h: 04:55 sereno Sereno 15 14 93 1018 10 N/NE 9.3
Oggi h: 03:55 sereno Sereno 15 14 93 1018 10 NE 7.4
Oggi h: 02:55 sereno Sereno 15 14 93 1018 10 N/NE 9.3
Oggi h: 01:55 sereno Sereno 16 15 93 1018 10 NE 7.4
Oggi h: 00:55 sereno Sereno 16 15 93 1018 10 NE 9.3
Ieri h: 23:55 sereno Sereno 16 15 93 1018 10 N/NE 9.3
Ieri h: 22:55 sereno Sereno 16 15 93 1018 10 NE 7.4
Ieri h: 21:55 sereno Sereno 16 15 93 1018 10 NE 7.4
Ieri h: 20:55 sereno Sereno 17 15 88 1018 10 NE 7.4
Ieri h: 19:55 sereno Sereno 18 16 88 1018 10 N/NE 7.4
Ieri h: 18:55 sereno Sereno 19 16 82 1017 10 N 5.5
Ieri h: 17:55 sereno Sereno 21 16 73 1018 10 O 13